Time;durP1;ratioP1;P1;durP2;ratioP2;P2;SDS_P1;SDS_P2;PMS_P1;PMS_P2;Temp;Humidity;BMP_temperature;BMP_pressure;BME280_temperature;BME280_humidity;BME280_pressure;Samples;Min_cycle;Max_cycle;Signal;HPM_P1;HPM_P2
2022/03/30 00:00:01;;;;;;;32.25;15.10;;;5.10;99.90;;;;;;4939032;28;183999;-75
2022/03/30 00:02:27;;;;;;;33.97;16.00;;;5.10;99.90;;;;;;4958564;28;20054;-75
2022/03/30 00:04:53;;;;;;;34.13;16.33;;;5.20;99.90;;;;;;4942027;28;163492;-75
2022/03/30 00:07:19;;;;;;;30.67;15.30;;;5.20;99.90;;;;;;4984564;28;20058;-76
2022/03/30 00:09:45;;;;;;;34.95;15.20;;;5.10;99.90;;;;;;4940276;28;169662;-75
2022/03/30 00:12:11;;;;;;;32.10;16.42;;;5.10;99.90;;;;;;4986517;28;20430;-75
2022/03/30 00:14:37;;;;;;;35.67;17.38;;;5.10;99.90;;;;;;4924562;28;61659;-75
2022/03/30 00:17:04;;;;;;;34.38;16.35;;;5.10;99.90;;;;;;4957665;28;20058;-75
2022/03/30 00:19:31;;;;;;;40.13;16.25;;;5.00;99.90;;;;;;4931216;28;111176;-74
2022/03/30 00:21:57;;;;;;;32.10;16.02;;;5.00;99.90;;;;;;4974222;28;20058;-75
2022/03/30 00:24:26;;;;;;;32.25;15.85;;;4.90;99.90;;;;;;4945575;28;269824;-73
2022/03/30 00:26:52;;;;;;;46.58;15.93;;;4.80;99.90;;;;;;4975419;28;20058;-75
2022/03/30 00:29:19;;;;;;;38.53;16.65;;;4.80;99.90;;;;;;4966483;28;269249;-74
2022/03/30 00:31:45;;;;;;;33.15;16.63;;;4.80;99.90;;;;;;4940417;28;20400;-75
2022/03/30 00:34:11;;;;;;;32.90;16.63;;;4.70;99.90;;;;;;4972625;28;88357;-75
2022/03/30 00:36:37;;;;;;;31.50;15.85;;;4.60;99.90;;;;;;4970625;28;20097;-75
2022/03/30 00:39:04;;;;;;;31.92;15.98;;;4.70;99.90;;;;;;4967372;28;249773;-75
2022/03/30 00:41:30;;;;;;;33.78;15.95;;;4.60;99.90;;;;;;4929258;28;20043;-75
2022/03/30 00:43:56;;;;;;;39.72;16.90;;;4.60;99.90;;;;;;4979480;28;262503;-75
2022/03/30 00:46:22;;;;;;;31.63;15.75;;;4.60;99.90;;;;;;4954767;28;20042;-76
2022/03/30 00:48:48;;;;;;;39.47;15.00;;;4.60;99.90;;;;;;4970620;28;268030;-75
2022/03/30 00:51:14;;;;;;;32.45;15.35;;;4.60;99.90;;;;;;4966611;28;20411;-76
2022/03/30 00:53:41;;;;;;;37.05;16.40;;;4.60;99.90;;;;;;4978993;28;20511;-76
2022/03/30 00:56:07;;;;;;;39.70;16.48;;;4.60;99.90;;;;;;4950199;28;60441;-75
2022/03/30 00:58:34;;;;;;;34.88;15.52;;;4.70;99.90;;;;;;4989253;28;20065;-75
2022/03/30 01:01:00;;;;;;;35.13;16.40;;;4.70;99.90;;;;;;4952440;28;141002;-75
2022/03/30 01:03:26;;;;;;;36.78;16.40;;;4.70;99.90;;;;;;4988828;28;20058;-75
2022/03/30 01:05:52;;;;;;;35.80;15.90;;;4.70;99.90;;;;;;4934303;28;242479;-75
2022/03/30 01:08:18;;;;;;;32.78;15.55;;;4.70;99.90;;;;;;5008106;28;20058;-75
2022/03/30 01:10:45;;;;;;;33.80;16.00;;;4.80;99.90;;;;;;4968965;28;104981;-74
2022/03/30 01:13:12;;;;;;;32.53;16.48;;;4.80;99.90;;;;;;4997233;28;20625;-75
2022/03/30 01:15:39;;;;;;;30.83;15.30;;;4.80;99.90;;;;;;4932662;28;161586;-75
2022/03/30 01:18:05;;;;;;;29.83;16.33;;;4.80;99.90;;;;;;4988813;28;20053;-75
2022/03/30 01:20:32;;;;;;;34.30;16.40;;;4.90;99.90;;;;;;4929261;28;261779;-75
2022/03/30 01:22:58;;;;;;;38.45;16.77;;;4.90;99.90;;;;;;4978222;28;20053;-75
2022/03/30 01:25:25;;;;;;;31.88;15.88;;;4.90;99.90;;;;;;4946842;28;269088;-74
2022/03/30 01:27:51;;;;;;;38.67;16.25;;;4.90;99.90;;;;;;4956909;28;20051;-75
2022/03/30 01:33:07;;;;;;;31.00;15.43;;;5.00;99.90;;;;;;4979222;28;20050;-75
2022/03/30 01:35:33;;;;;;;;;;;5.00;99.90;;;;;;4952883;28;260438;-75
2022/03/30 01:38:00;;;;;;;31.90;15.23;;;5.10;99.90;;;;;;4989372;28;19933;-75
2022/03/30 01:40:26;;;;;;;29.45;14.32;;;5.00;99.90;;;;;;4959546;28;38301;-74
2022/03/30 01:42:52;;;;;;;37.80;16.13;;;5.10;99.90;;;;;;4969890;28;20050;-75
2022/03/30 01:45:19;;;;;;;32.92;15.32;;;5.10;99.90;;;;;;4944217;28;23553;-75
2022/03/30 01:47:54;;;;;;;32.85;15.07;;;5.20;99.90;;;;;;4981209;28;20493;-75
2022/03/30 01:50:21;;;;;;;30.35;14.90;;;5.20;99.90;;;;;;4929672;28;27889;-75
2022/03/30 01:52:48;;;;;;;30.83;14.80;;;5.20;99.90;;;;;;4957132;28;20058;-75
2022/03/30 01:55:15;;;;;;;34.53;15.43;;;5.20;99.90;;;;;;4964172;28;54448;-74
2022/03/30 01:57:41;;;;;;;29.90;14.75;;;5.20;99.90;;;;;;4960165;28;20055;-75
2022/03/30 02:00:10;;;;;;;29.92;14.27;;;5.30;99.90;;;;;;4921264;28;181298;-74
2022/03/30 02:02:38;;;;;;;30.23;14.25;;;5.30;99.90;;;;;;4992188;28;20041;-75
2022/03/30 02:05:06;;;;;;;36.95;15.07;;;5.40;99.90;;;;;;4918006;28;189728;-75
2022/03/30 02:07:32;;;;;;;29.48;15.02;;;5.40;99.90;;;;;;4986436;28;20053;-74
2022/03/30 02:09:58;;;;;;;30.25;14.85;;;5.40;99.90;;;;;;4935834;28;259453;-76
2022/03/30 02:12:24;;;;;;;32.00;15.05;;;5.40;99.90;;;;;;4954862;28;20058;-75
2022/03/30 02:14:53;;;;;;;37.38;16.17;;;5.40;99.90;;;;;;4913998;28;195246;-75
2022/03/30 02:17:20;;;;;;;33.70;14.60;;;5.40;99.90;;;;;;4986510;28;20034;-74
2022/03/30 02:19:46;;;;;;;37.90;16.38;;;5.40;99.90;;;;;;4945114;28;118539;-75
2022/03/30 02:22:13;;;;;;;33.00;14.93;;;5.40;99.90;;;;;;4988189;28;20158;-75
2022/03/30 02:24:39;;;;;;;32.60;15.48;;;5.40;99.90;;;;;;4964986;28;41263;-74
2022/03/30 02:27:05;;;;;;;30.27;14.07;;;5.40;99.90;;;;;;4989991;28;20068;-75
2022/03/30 02:29:34;;;;;;;35.30;16.25;;;5.40;99.90;;;;;;4946636;28;119449;-74
2022/03/30 02:32:01;;;;;;;33.15;15.18;;;5.40;99.90;;;;;;4943233;28;20518;-74
2022/03/30 02:34:27;;;;;;;36.00;15.32;;;5.50;99.90;;;;;;4949234;28;20858;-73
2022/03/30 02:36:54;;;;;;;28.95;14.60;;;5.50;99.90;;;;;;4992762;28;20050;-75
2022/03/30 02:39:20;;;;;;;33.58;15.52;;;5.50;99.90;;;;;;4963994;28;218359;-73
2022/03/30 02:41:46;;;;;;;33.17;15.38;;;5.50;99.90;;;;;;4954352;28;20590;-74
2022/03/30 02:44:15;;;;;;;35.80;15.75;;;5.50;99.90;;;;;;4973230;28;213026;-74
2022/03/30 02:46:42;;;;;;;36.53;15.63;;;5.50;99.90;;;;;;4977260;28;20346;-75
2022/03/30 02:49:09;;;;;;;40.25;16.38;;;5.50;99.90;;;;;;4998828;28;265879;-74
2022/03/30 02:51:35;;;;;;;37.72;15.52;;;5.50;99.90;;;;;;4980737;28;20046;-75
2022/03/30 02:54:02;;;;;;;29.85;14.35;;;5.50;99.90;;;;;;4978614;28;268169;-75
2022/03/30 02:56:28;;;;;;;31.95;15.35;;;5.50;99.90;;;;;;4966349;28;20064;-75
2022/03/30 02:58:54;;;;;;;38.63;16.00;;;5.50;99.90;;;;;;4956590;28;255355;-74
2022/03/30 03:01:20;;;;;;;36.08;15.45;;;5.50;99.90;;;;;;4957910;28;20050;-75
2022/03/30 03:03:46;;;;;;;32.45;14.35;;;5.40;99.90;;;;;;4978618;28;20066;-75
2022/03/30 03:06:12;;;;;;;35.83;15.82;;;5.40;99.90;;;;;;4924245;28;254788;-75
2022/03/30 03:08:38;;;;;;;35.00;15.32;;;5.40;99.90;;;;;;4982075;28;20055;-74
2022/03/30 03:11:05;;;;;;;33.85;15.55;;;5.30;99.90;;;;;;4946998;28;137639;-75
2022/03/30 03:13:31;;;;;;;35.30;15.75;;;5.40;99.90;;;;;;4977425;28;20046;-75
2022/03/30 03:15:57;;;;;;;33.33;15.30;;;5.40;99.90;;;;;;4931185;28;279714;-75
2022/03/30 03:18:23;;;;;;;32.05;15.02;;;5.40;99.90;;;;;;4982041;28;20072;-75
2022/03/30 03:20:50;;;;;;;32.42;15.25;;;5.50;99.90;;;;;;4964893;28;275617;-75
2022/03/30 03:23:17;;;;;;;35.28;15.77;;;5.50;99.90;;;;;;5001762;28;20062;-75
2022/03/30 03:25:44;;;;;;;32.35;16.35;;;5.40;99.90;;;;;;4957738;28;254079;-75
2022/03/30 03:28:12;;;;;;;42.83;17.33;;;5.40;99.90;;;;;;5017160;28;20050;-75
2022/03/30 03:30:39;;;;;;;36.40;15.55;;;5.40;99.90;;;;;;4945134;28;152890;-75
2022/03/30 03:33:06;;;;;;;37.55;16.83;;;5.40;99.90;;;;;;4983401;28;20435;-75
2022/03/30 03:35:32;;;;;;;39.17;16.27;;;5.40;99.90;;;;;;4942363;28;255211;-75
2022/03/30 03:37:59;;;;;;;38.75;16.45;;;5.40;99.90;;;;;;4959100;28;20055;-75
2022/03/30 03:40:27;;;;;;;32.80;16.08;;;5.40;99.90;;;;;;4963396;28;263861;-75
2022/03/30 03:42:53;;;;;;;36.67;16.27;;;5.40;99.90;;;;;;5016339;28;20064;-75
2022/03/30 03:45:19;;;;;;;30.05;15.10;;;5.40;99.90;;;;;;4960346;28;253145;-75
2022/03/30 03:47:48;;;;;;;35.13;15.48;;;5.40;99.90;;;;;;4993669;28;20065;-74
2022/03/30 03:50:15;;;;;;;31.42;15.93;;;5.40;99.90;;;;;;4959521;28;280060;-75
2022/03/30 03:52:41;;;;;;;35.40;15.93;;;5.40;99.90;;;;;;5001826;28;20050;-75
2022/03/30 03:55:08;;;;;;;35.00;15.93;;;5.40;99.90;;;;;;4963010;28;263310;-75
2022/03/30 03:57:35;;;;;;;34.50;15.30;;;5.40;99.90;;;;;;4998712;28;20052;-75
2022/03/30 04:00:03;;;;;;;31.77;15.05;;;5.40;99.90;;;;;;4965438;28;266211;-75
2022/03/30 04:02:29;;;;;;;30.58;15.35;;;5.50;99.90;;;;;;5005531;28;20055;-75
2022/03/30 04:04:55;;;;;;;37.22;16.90;;;5.50;99.90;;;;;;4933246;28;219100;-74
2022/03/30 04:07:21;;;;;;;33.13;15.07;;;5.50;99.90;;;;;;4994546;28;20061;-75
2022/03/30 04:09:47;;;;;;;33.78;14.95;;;5.60;99.90;;;;;;4965361;28;236610;-75
2022/03/30 04:12:14;;;;;;;29.38;14.63;;;5.60;99.90;;;;;;5012550;28;20068;-75
2022/03/30 04:14:40;;;;;;;29.25;14.68;;;5.60;99.90;;;;;;4957400;28;244977;-74
2022/03/30 04:17:06;;;;;;;31.20;13.90;;;5.60;99.90;;;;;;4998141;28;20046;-75
2022/03/30 04:19:32;;;;;;;31.75;14.27;;;5.60;99.90;;;;;;4949667;28;264999;-75
2022/03/30 04:21:58;;;;;;;29.65;13.25;;;5.60;99.90;;;;;;4981391;28;20062;-75
2022/03/30 04:24:24;;;;;;;31.65;12.98;;;5.70;99.90;;;;;;4945257;28;244267;-75
2022/03/30 04:26:51;;;;;;;24.25;11.32;;;5.70;99.90;;;;;;4987496;28;20047;-75
2022/03/30 04:29:17;;;;;;;24.33;11.38;;;5.70;99.90;;;;;;4972525;28;267139;-75
2022/03/30 04:31:44;;;;;;;18.90;7.43;;;5.70;99.90;;;;;;4971735;28;20093;-75
2022/03/30 04:34:10;;;;;;;10.05;4.20;;;5.70;99.90;;;;;;4988706;28;276253;-75
2022/03/30 04:36:36;;;;;;;12.18;3.67;;;5.70;99.90;;;;;;4977047;28;20054;-75
2022/03/30 04:39:04;;;;;;;8.65;2.65;;;5.70;99.90;;;;;;4985393;28;258548;-75
2022/03/30 04:41:30;;;;;;;7.25;1.75;;;5.60;99.90;;;;;;4974704;28;20043;-75
2022/03/30 04:43:56;;;;;;;6.03;1.52;;;5.60;99.90;;;;;;4981043;28;258683;-74
2022/03/30 04:46:22;;;;;;;8.55;1.50;;;5.60;99.90;;;;;;4963302;28;20053;-74
2022/03/30 04:48:48;;;;;;;6.70;1.50;;;5.60;99.90;;;;;;4967001;28;266249;-76
2022/03/30 04:51:15;;;;;;;6.10;1.35;;;5.60;99.90;;;;;;4988153;28;20062;-75
2022/03/30 04:53:41;;;;;;;5.70;1.20;;;5.60;99.90;;;;;;4979254;28;20058;-75
2022/03/30 04:56:07;;;;;;;7.55;1.25;;;5.50;99.90;;;;;;4976817;28;113257;-75
2022/03/30 04:58:33;;;;;;;5.10;1.30;;;5.50;99.90;;;;;;4976969;28;20369;-75
2022/03/30 05:00:59;;;;;;;10.40;1.10;;;5.60;99.90;;;;;;4931077;28;77641;-75
2022/03/30 05:03:25;;;;;;;4.55;1.10;;;5.60;99.90;;;;;;4991704;28;20061;-75
2022/03/30 05:05:52;;;;;;;4.03;0.88;;;5.50;99.90;;;;;;4934243;28;253442;-75
2022/03/30 05:08:18;;;;;;;6.45;1.10;;;5.50;99.90;;;;;;4988384;28;20069;-75
2022/03/30 05:10:46;;;;;;;3.45;1.02;;;5.50;99.90;;;;;;4952884;28;53058;-75
2022/03/30 05:13:13;;;;;;;3.13;0.90;;;5.50;99.90;;;;;;4983183;28;20054;-75
2022/03/30 05:15:39;;;;;;;3.58;0.80;;;5.60;99.90;;;;;;4952876;28;156219;-75
2022/03/30 05:18:06;;;;;;;6.00;1.00;;;5.50;99.90;;;;;;5007416;28;20057;-75
2022/03/30 05:20:33;;;;;;;3.70;0.73;;;5.50;99.90;;;;;;4946521;28;243351;-75
2022/03/30 05:22:59;;;;;;;4.30;0.90;;;5.40;99.90;;;;;;4974766;28;20524;-75
2022/03/30 05:25:26;;;;;;;5.22;1.00;;;5.30;99.90;;;;;;4936420;28;77820;-75
2022/03/30 05:27:52;;;;;;;3.97;1.08;;;5.30;99.90;;;;;;4974946;28;20066;-75
2022/03/30 05:30:18;;;;;;;5.63;1.10;;;5.30;99.90;;;;;;4946587;28;38637;-75
2022/03/30 05:32:48;;;;;;;7.68;1.40;;;5.20;99.90;;;;;;4995925;28;20057;-75
2022/03/30 05:35:14;;;;;;;6.22;1.20;;;5.10;99.90;;;;;;4948981;28;255995;-75
2022/03/30 05:37:41;;;;;;;4.95;1.20;;;5.10;99.90;;;;;;4992600;28;20057;-75
2022/03/30 05:40:09;;;;;;;4.15;1.00;;;5.10;99.90;;;;;;4953536;28;277225;-74
2022/03/30 05:42:35;;;;;;;5.65;1.10;;;5.00;99.90;;;;;;4992665;28;20058;-75
2022/03/30 05:45:04;;;;;;;7.93;1.30;;;5.00;99.90;;;;;;4959400;28;20046;-74
2022/03/30 05:47:31;;;;;;;4.95;1.08;;;5.00;99.90;;;;;;4971633;28;20134;-74
2022/03/30 05:49:57;;;;;;;7.53;1.30;;;5.00;99.90;;;;;;4954557;28;109840;-74
2022/03/30 05:52:24;;;;;;;5.60;1.67;;;4.90;99.90;;;;;;4974988;28;20126;-75
2022/03/30 05:54:50;;;;;;;6.25;1.48;;;4.90;99.90;;;;;;4948211;28;206326;-75
2022/03/30 05:57:18;;;;;;;5.55;1.20;;;4.90;99.90;;;;;;5009797;28;20053;-75
2022/03/30 05:59:45;;;;;;;5.70;1.30;;;4.90;99.90;;;;;;4974974;28;232229;-72
2022/03/30 06:02:13;;;;;;;9.27;1.35;;;4.90;99.90;;;;;;4989361;28;20065;-73
2022/03/30 06:04:41;;;;;;;6.15;1.33;;;4.90;99.90;;;;;;4927718;28;253713;-73
2022/03/30 06:07:08;;;;;;;4.88;1.20;;;4.90;99.90;;;;;;4996335;28;20063;-73
2022/03/30 06:09:34;;;;;;;6.93;1.30;;;4.80;99.90;;;;;;4924795;28;136013;-72
2022/03/30 06:12:01;;;;;;;8.27;1.70;;;4.80;99.90;;;;;;4948376;28;20050;-72
2022/03/30 06:14:27;;;;;;;6.35;1.45;;;4.90;99.90;;;;;;4941437;28;257039;-71
2022/03/30 06:16:54;;;;;;;6.78;1.50;;;4.90;99.90;;;;;;4983274;28;20050;-72
2022/03/30 06:19:20;;;;;;;7.40;1.50;;;5.00;99.90;;;;;;4947895;28;131126;-72
2022/03/30 06:21:46;;;;;;;6.38;1.65;;;5.00;99.90;;;;;;4955419;28;20049;-72
2022/03/30 06:24:13;;;;;;;7.65;1.60;;;5.00;99.90;;;;;;4969918;28;253267;-72
2022/03/30 06:26:40;;;;;;;9.35;1.60;;;5.10;99.90;;;;;;4952825;28;20042;-72
2022/03/30 06:29:07;;;;;;;4.93;1.50;;;5.10;99.90;;;;;;4967766;28;258196;-72
2022/03/30 06:31:33;;;;;;;7.20;1.80;;;5.20;99.90;;;;;;4963072;28;20061;-70
2022/03/30 06:34:00;;;;;;;5.60;1.60;;;5.30;99.90;;;;;;4938282;28;274388;-72
2022/03/30 06:36:27;;;;;;;7.82;1.60;;;5.30;99.90;;;;;;4951406;28;20046;-72
2022/03/30 06:38:53;;;;;;;6.37;1.60;;;5.40;99.90;;;;;;4967911;28;269953;-72
2022/03/30 06:41:19;;;;;;;5.22;1.60;;;5.40;99.90;;;;;;4935743;28;20043;-71
2022/03/30 06:43:46;;;;;;;6.50;1.80;;;5.60;99.90;;;;;;4981945;28;20411;-72
2022/03/30 06:46:14;;;;;;;7.32;1.80;;;5.80;99.90;;;;;;4905663;28;20066;-73
2022/03/30 06:48:40;;;;;;;8.68;1.83;;;5.90;99.90;;;;;;4960043;28;20057;-73
2022/03/30 06:51:07;;;;;;;6.88;1.70;;;6.00;99.90;;;;;;4945942;28;244170;-73
2022/03/30 06:53:33;;;;;;;8.35;1.80;;;6.10;99.90;;;;;;4969724;28;20043;-73
2022/03/30 06:55:59;;;;;;;7.72;2.05;;;6.20;99.90;;;;;;4932924;28;212598;-73
2022/03/30 06:58:25;;;;;;;6.57;1.75;;;6.30;99.90;;;;;;4963660;28;20420;-74
2022/03/30 07:00:52;;;;;;;7.25;1.95;;;6.30;99.90;;;;;;4931573;28;198219;-73
2022/03/30 07:03:18;;;;;;;7.40;2.20;;;6.40;99.90;;;;;;4957996;28;20047;-73
2022/03/30 07:05:44;;;;;;;8.73;2.50;;;6.50;99.90;;;;;;4934037;28;153100;-73
2022/03/30 07:10:55;;;;;;;6.95;1.80;;;6.60;99.90;;;;;;4952437;28;258211;-73
2022/03/30 07:13:22;;;;;;;9.45;2.20;;;6.70;99.90;;;;;;4986964;28;20054;-73
2022/03/30 07:15:48;;;;;;;7.82;2.03;;;6.80;99.90;;;;;;4968953;28;72370;-73
2022/03/30 07:18:14;;;;;;;8.02;2.30;;;6.90;99.90;;;;;;4978341;28;20398;-73
2022/03/30 07:20:41;;;;;;;10.65;2.70;;;7.00;99.90;;;;;;4953488;28;253386;-73
2022/03/30 07:23:10;;;;;;;11.23;2.30;;;6.90;99.90;;;;;;4985693;28;20050;-73
2022/03/30 07:25:37;;;;;;;10.20;2.90;;;6.90;99.90;;;;;;4945004;28;261736;-73
2022/03/30 07:28:04;;;;;;;11.48;2.85;;;6.90;99.90;;;;;;4981493;28;20420;-73
2022/03/30 07:30:32;;;;;;;11.75;3.05;;;6.90;99.90;;;;;;4953872;28;265225;-73
2022/03/30 07:32:59;;;;;;;9.27;2.80;;;6.90;99.90;;;;;;4987477;28;20058;-73
2022/03/30 07:35:27;;;;;;;9.77;2.75;;;7.00;99.90;;;;;;4949243;28;51417;-74
2022/03/30 07:37:55;;;;;;;9.90;2.33;;;7.10;99.90;;;;;;4985609;28;20062;-73
2022/03/30 07:40:24;;;;;;;10.02;2.08;;;7.20;99.90;;;;;;4938422;28;276418;-73
2022/03/30 07:42:51;;;;;;;9.40;2.10;;;7.40;99.90;;;;;;4981479;28;20058;-73
2022/03/30 07:45:19;;;;;;;10.75;2.45;;;7.40;99.90;;;;;;4942102;28;274572;-74
2022/03/30 07:47:46;;;;;;;8.80;1.75;;;7.40;99.90;;;;;;4978120;28;20046;-74
2022/03/30 07:50:13;;;;;;;11.52;1.98;;;7.50;99.90;;;;;;4947959;28;28112;-73
2022/03/30 07:52:42;;;;;;;9.77;1.77;;;7.60;99.90;;;;;;4987611;28;20124;-74
2022/03/30 07:55:10;;;;;;;10.75;2.10;;;7.60;99.90;;;;;;4946490;28;52201;-74
2022/03/30 07:57:37;;;;;;;9.48;1.73;;;7.50;99.90;;;;;;4970490;28;20063;-73
2022/03/30 08:00:07;;;;;;;7.25;1.60;;;7.50;99.90;;;;;;4942330;28;196580;-73
2022/03/30 08:02:34;;;;;;;10.67;2.03;;;7.70;99.90;;;;;;4980087;28;20047;-73
2022/03/30 08:05:00;;;;;;;8.85;1.90;;;7.80;99.90;;;;;;4922737;28;121110;-74
2022/03/30 08:07:26;;;;;;;11.52;2.20;;;7.90;99.90;;;;;;4965375;28;20069;-73
2022/03/30 08:09:53;;;;;;;9.77;1.85;;;7.90;99.90;;;;;;4952060;28;100197;-74
2022/03/30 08:12:20;;;;;;;8.27;2.00;;;8.10;99.90;;;;;;4992307;28;20054;-74
2022/03/30 08:14:46;;;;;;;9.68;2.10;;;8.10;99.90;;;;;;4943140;28;194455;-73
2022/03/30 08:17:13;;;;;;;8.68;1.77;;;8.10;99.90;;;;;;5015957;28;20069;-74
2022/03/30 08:19:40;;;;;;;8.68;2.10;;;8.10;99.90;;;;;;4942395;28;233772;-73
2022/03/30 08:24:55;;;;;;;8.00;1.98;;;8.50;99.90;;;;;;4942098;28;224133;-74
2022/03/30 08:27:25;;;;;;;9.60;1.90;;;8.60;99.90;;;;;;4983802;28;20059;-72
2022/03/30 08:29:52;;;;;;;7.75;1.98;;;8.60;99.90;;;;;;4929730;28;181448;-73
2022/03/30 08:32:21;;;;;;;8.25;2.15;;;8.60;99.90;;;;;;4964308;28;20051;-72
2022/03/30 08:34:48;;;;;;;7.57;2.20;;;8.50;99.90;;;;;;4923175;28;182373;-73
2022/03/30 08:37:15;;;;;;;9.05;2.38;;;8.40;99.90;;;;;;4992629;28;20058;-73
2022/03/30 08:39:41;;;;;;;9.43;2.33;;;8.40;99.90;;;;;;4947650;28;68511;-73
2022/03/30 08:42:09;;;;;;;8.10;2.08;;;8.50;99.90;;;;;;4998628;28;20049;-73
2022/03/30 08:44:37;;;;;;;7.43;2.30;;;8.50;99.90;;;;;;4931600;28;72852;-73
2022/03/30 08:47:04;;;;;;;9.38;2.33;;;8.50;99.90;;;;;;4968834;28;20508;-73
2022/03/30 08:49:34;;;;;;;9.10;2.40;;;8.60;99.90;;;;;;4944599;28;273064;-72
2022/03/30 08:52:03;;;;;;;7.53;1.90;;;8.80;99.90;;;;;;4981489;28;20061;-73
2022/03/30 08:54:29;;;;;;;11.65;2.30;;;9.00;99.90;;;;;;4932959;28;98696;-73
2022/03/30 08:56:56;;;;;;;7.95;2.05;;;9.20;99.90;;;;;;4967427;28;20291;-73
2022/03/30 08:59:24;;;;;;;9.68;2.00;;;9.30;99.90;;;;;;4936294;28;254395;-72
2022/03/30 09:01:54;;;;;;;9.82;2.25;;;9.00;99.90;;;;;;4973820;28;20043;-73
2022/03/30 09:04:20;;;;;;;9.50;2.60;;;8.70;99.90;;;;;;4928012;28;242976;-72
2022/03/30 09:06:49;;;;;;;10.07;2.50;;;8.30;99.90;;;;;;4948582;28;20412;-73
2022/03/30 09:09:28;;;;;;;13.63;2.60;;;8.10;99.90;;;;;;4956562;28;261444;-73
2022/03/30 09:11:55;;;;;;;9.15;2.20;;;7.60;99.90;;;;;;4956205;28;20050;-73
2022/03/30 09:14:25;;;;;;;8.13;1.52;;;7.40;99.90;;;;;;4958503;28;199431;-72
2022/03/30 09:16:55;;;;;;;7.40;1.73;;;7.10;99.90;;;;;;4958195;28;20042;-73
2022/03/30 09:19:22;;;;;;;9.25;1.95;;;7.10;99.90;;;;;;4963888;28;268956;-71
2022/03/30 09:21:50;;;;;;;7.72;1.50;;;7.00;99.90;;;;;;4976305;28;20054;-73
2022/03/30 09:24:22;;;;;;;8.18;1.95;;;7.10;99.90;;;;;;4963060;28;85636;-74
2022/03/30 09:26:50;;;;;;;10.25;1.90;;;7.20;99.90;;;;;;4962270;28;20057;-73
2022/03/30 09:29:22;;;;;;;10.90;1.98;;;7.60;99.90;;;;;;4969894;28;273001;-72
2022/03/30 09:31:50;;;;;;;7.97;1.95;;;7.80;99.90;;;;;;4969739;28;20039;-73
2022/03/30 09:34:17;;;;;;;8.45;2.00;;;8.00;99.90;;;;;;4972412;28;230963;-72
2022/03/30 09:36:44;;;;;;;10.77;2.03;;;8.10;99.90;;;;;;4944789;28;20484;-73
2022/03/30 09:39:30;;;;;;;5.95;1.55;;;8.10;99.90;;;;;;4974512;28;251392;-73
2022/03/30 09:41:58;;;;;;;8.70;1.40;;;8.40;99.90;;;;;;4922424;28;20042;-72
2022/03/30 09:44:28;;;;;;;10.35;1.60;;;8.60;99.90;;;;;;4936957;28;256443;-73
2022/03/30 09:47:05;;;;;;;9.05;1.60;;;8.20;99.90;;;;;;4992068;28;20082;-72
2022/03/30 09:49:40;;;;;;;8.98;1.55;;;8.20;99.90;;;;;;4942542;28;171433;-72
2022/03/30 09:52:27;;;;;;;6.45;1.50;;;8.10;99.90;;;;;;5001695;28;20047;-73
2022/03/30 09:54:55;;;;;;;9.65;2.40;;;8.10;99.90;;;;;;4938215;28;280252;-72
2022/03/30 09:57:27;;;;;;;9.98;2.05;;;8.10;99.90;;;;;;4972956;28;20059;-74
2022/03/30 09:59:57;;;;;;;7.63;1.90;;;8.30;99.90;;;;;;4936972;28;264590;-74
2022/03/30 10:02:24;;;;;;;8.73;2.10;;;8.40;99.90;;;;;;4982067;28;20050;-73
2022/03/30 10:04:51;;;;;;;9.63;2.13;;;8.50;99.90;;;;;;4918996;28;264274;-73
2022/03/30 10:07:17;;;;;;;8.25;1.85;;;8.70;99.90;;;;;;4970159;28;20051;-74
2022/03/30 10:09:44;;;;;;;7.05;1.50;;;9.00;99.90;;;;;;4929670;28;168394;-75
2022/03/30 10:12:12;;;;;;;10.05;1.85;;;8.90;99.90;;;;;;4957428;28;20058;-73
2022/03/30 10:14:39;;;;;;;8.35;1.40;;;9.00;99.90;;;;;;4937337;28;226403;-74
2022/03/30 10:17:05;;;;;;;7.82;1.48;;;9.00;99.90;;;;;;4986523;28;20058;-73
2022/03/30 10:19:32;;;;;;;6.70;1.20;;;9.20;99.90;;;;;;4937405;28;268414;-73
2022/03/30 10:22:08;;;;;;;8.40;1.30;;;9.40;99.90;;;;;;4980766;28;20050;-73
2022/03/30 10:24:52;;;;;;;8.48;1.23;;;9.60;99.90;;;;;;4936860;28;20212;-74
2022/03/30 10:27:43;;;;;;;6.60;1.10;;;9.90;99.90;;;;;;4952867;28;20069;-73
2022/03/30 10:30:11;;;;;;;6.93;1.20;;;10.20;99.90;;;;;;4934209;28;180431;-73
2022/03/30 10:32:39;;;;;;;7.22;1.30;;;9.70;99.10;;;;;;4973272;28;20054;-74
2022/03/30 10:35:12;;;;;;;7.45;1.20;;;9.90;99.90;;;;;;4943866;28;50590;-73
2022/03/30 10:37:55;;;;;;;6.90;1.40;;;10.20;99.90;;;;;;4978509;28;20065;-72
2022/03/30 10:40:25;;;;;;;9.15;1.83;;;10.20;99.60;;;;;;4950777;28;94109;-74
2022/03/30 10:42:54;;;;;;;7.78;1.58;;;10.20;99.50;;;;;;4985661;28;20424;-73
2022/03/30 10:45:51;;;;;;;6.68;1.60;;;10.20;99.00;;;;;;4940461;28;46652;-73
2022/03/30 10:48:20;;;;;;;6.68;1.30;;;10.20;99.00;;;;;;4978162;28;20051;-73
2022/03/30 10:50:51;;;;;;;7.38;1.48;;;10.00;98.90;;;;;;4923355;28;243455;-73
2022/03/30 10:53:38;;;;;;;10.15;1.58;;;9.80;98.50;;;;;;4978518;28;20051;-74
2022/03/30 10:56:10;;;;;;;8.40;1.27;;;9.60;98.10;;;;;;4900353;28;233939;-73
2022/03/30 10:58:59;;;;;;;7.40;1.40;;;9.70;98.60;;;;;;4977603;28;20046;-73
2022/03/30 11:01:36;;;;;;;6.05;1.38;;;9.80;98.80;;;;;;4943704;28;20042;-73
2022/03/30 11:04:14;;;;;;;6.10;1.30;;;9.80;99.00;;;;;;4949006;28;280446;-73
2022/03/30 11:06:42;;;;;;;9.23;1.83;;;9.90;98.30;;;;;;4937266;28;20065;-73
2022/03/30 11:09:09;;;;;;;8.10;1.67;;;10.10;98.60;;;;;;4958781;28;272910;-73
2022/03/30 11:11:42;;;;;;;8.45;1.73;;;10.40;98.50;;;;;;4949934;28;20459;-74
2022/03/30 11:14:37;;;;;;;11.68;1.83;;;10.50;97.50;;;;;;4931299;28;256985;-73
2022/03/30 11:17:04;;;;;;;8.85;1.83;;;10.90;98.00;;;;;;4930069;28;20042;-73
2022/03/30 11:19:53;;;;;;;8.00;1.88;;;10.80;95.80;;;;;;4941637;28;77002;-73
2022/03/30 11:22:24;;;;;;;7.05;1.70;;;10.80;95.50;;;;;;4960158;28;20143;-73
2022/03/30 11:25:19;;;;;;;9.77;1.77;;;10.70;96.10;;;;;;4911626;28;20053;-73
2022/03/30 11:27:58;;;;;;;7.63;1.60;;;10.80;96.40;;;;;;4955609;28;20513;-73
2022/03/30 11:30:29;;;;;;;9.38;1.70;;;10.90;96.00;;;;;;4929031;28;258243;-73
2022/03/30 11:32:56;;;;;;;;;;;11.10;95.00;;;;;;4969059;28;20069;-73
2022/03/30 11:35:26;;;;;;;7.57;1.77;;;11.30;93.70;;;;;;4921191;28;138986;-73
2022/03/30 11:38:21;;;;;;;8.82;1.50;;;11.60;95.30;;;;;;4969775;28;20058;-73
2022/03/30 11:40:49;;;;;;;7.10;1.35;;;11.90;94.60;;;;;;4923147;28;120133;-74
2022/03/30 11:43:17;;;;;;;7.32;1.58;;;11.70;92.90;;;;;;4975749;28;20050;-73
2022/03/30 11:45:44;;;;;;;8.63;1.30;;;11.30;93.30;;;;;;4930633;28;268228;-74
2022/03/30 11:48:12;;;;;;;9.45;1.40;;;11.00;92.90;;;;;;4962371;28;20059;-73
2022/03/30 11:50:44;;;;;;;7.57;1.40;;;10.00;92.10;;;;;;4944386;28;56586;-72
2022/03/30 11:53:19;;;;;;;8.35;1.45;;;9.40;93.80;;;;;;4982755;28;20050;-73
2022/03/30 11:55:51;;;;;;;7.88;1.58;;;9.40;95.70;;;;;;4939637;28;262002;-73
2022/03/30 11:58:44;;;;;;;4.82;1.00;;;9.50;95.40;;;;;;4976487;28;20055;-74
2022/03/30 12:01:13;;;;;;;10.02;1.45;;;9.50;95.40;;;;;;4927518;28;32398;-72
2022/03/30 12:03:41;;;;;;;9.25;1.38;;;9.50;95.80;;;;;;4963931;28;20031;-73
2022/03/30 12:06:08;;;;;;;7.72;1.42;;;9.50;95.80;;;;;;4920578;28;148312;-72
2022/03/30 12:08:48;;;;;;;6.68;1.52;;;9.50;95.00;;;;;;4982398;28;20507;-72
2022/03/30 12:11:19;;;;;;;6.80;1.42;;;9.70;95.20;;;;;;4947114;28;20049;-73
2022/03/30 12:13:53;;;;;;;8.45;1.73;;;9.70;94.60;;;;;;4985664;28;20049;-73
2022/03/30 12:16:22;;;;;;;9.15;1.40;;;10.10;95.00;;;;;;4916858;28;20050;-72
2022/03/30 12:18:53;;;;;;;7.22;1.20;;;10.40;94.80;;;;;;4973790;28;246515;-72
2022/03/30 12:21:24;;;;;;;7.15;1.30;;;10.60;94.00;;;;;;4955202;28;20038;-73
2022/03/30 12:23:56;;;;;;;5.35;1.10;;;10.60;93.50;;;;;;4992820;28;257972;-73
2022/03/30 12:26:23;;;;;;;8.15;1.17;;;10.60;92.70;;;;;;4931266;28;20133;-73
2022/03/30 12:28:49;;;;;;;8.45;1.40;;;10.50;91.40;;;;;;4948836;28;265309;-73
2022/03/30 12:31:16;;;;;;;7.07;1.30;;;10.50;92.40;;;;;;4962689;28;20042;-74
2022/03/30 12:33:47;;;;;;;8.23;1.20;;;10.70;92.80;;;;;;4970394;28;20061;-73
2022/03/30 12:36:17;;;;;;;;;;;10.70;92.60;;;;;;4920056;28;20046;-72
2022/03/30 12:38:43;;;;;;;9.43;1.50;;;10.40;90.60;;;;;;4982015;28;20387;-72
2022/03/30 12:41:11;;;;;;;7.38;1.30;;;10.30;91.90;;;;;;4943786;28;136965;-73
2022/03/30 12:43:39;;;;;;;6.60;1.17;;;10.20;91.40;;;;;;4989779;28;20054;-74
2022/03/30 12:46:14;;;;;;;6.97;1.13;;;10.10;90.30;;;;;;4941108;28;252852;-74
2022/03/30 12:48:41;;;;;;;10.05;1.30;;;10.30;91.30;;;;;;4985928;28;20066;-73
2022/03/30 12:51:18;;;;;;;7.28;1.20;;;10.40;91.00;;;;;;4918300;28;104157;-72
2022/03/30 12:53:47;;;;;;;6.65;1.08;;;10.50;90.20;;;;;;4973378;28;20424;-72
2022/03/30 12:56:17;;;;;;;6.05;1.10;;;10.70;90.10;;;;;;4940591;28;20068;-73
2022/03/30 12:58:58;;;;;;;7.63;1.15;;;10.90;89.50;;;;;;4983068;28;20093;-73